Bookmark and Share
Track history (hours):
 

Wilson Maas

Last reported at 2014-Apr-15 08:34 UTC. Time now 2014-Apr-16 16:00 UTC.
Position N 58°49' E 005°05'.

Length 75 m; draft 3.7 m.

Type: Cargo ship. MMSI: 314217000.

NotesDate/timePositionNaut miles runAvg speedWind from/ knotsBaromVisibWave heightAir tempDewpointWater temp
2014-Apr-15 08:34N 58°49' E 005°05'10 9.3
2014-Apr-15 07:32N 58°57' E 004°56'9 9.6
2014-Apr-15 06:34N 59°06' E 004°49'  
2014-Apr-11 11:15N 59°14' E 005°01'7 9.6
2014-Apr-11 10:33N 59°08' E 005°08'9 9.4
2014-Apr-11 09:33N 59°07' E 005°26'10 9.6
2014-Apr-11 08:34N 59°01' E 005°42'8 8.0
2014-Apr-11 07:33N 58°54' E 005°46'2 2.4
2014-Apr-11 06:33N 58°51' E 005°45'0 0.0
2014-Apr-11 05:33N 58°51' E 005°45'0 0.0
2014-Apr-11 04:33N 58°51' E 005°45'0 0.0
2014-Apr-11 03:33N 58°51' E 005°45'0 0.0
2014-Apr-11 02:33N 58°51' E 005°45'0 0.0
2014-Apr-11 01:33N 58°51' E 005°45'0 0.0
2014-Apr-11 00:33N 58°51' E 005°45'0 0.0
2014-Apr-10 23:33N 58°51' E 005°45'0 0.0
2014-Apr-10 22:30N 58°51' E 005°45'0 0.0
2014-Apr-10 21:33N 58°51' E 005°45'0 0.0
2014-Apr-10 20:33N 58°51' E 005°45'0 0.0
2014-Apr-10 19:33N 58°51' E 005°45'0 0.0
2014-Apr-10 18:33N 58°51' E 005°45'7 7.2
2014-Apr-10 17:33N 58°58' E 005°47'7 7.1
2014-Apr-10 16:33N 58°60' E 005°33'1010.4
2014-Apr-10 15:33N 58°50' E 005°28'20 8.4
2014-Apr-10 13:12N 58°31' E 005°38'6 9.2
2014-Apr-10 12:32N 58°26' E 005°45'9 9.6
2014-Apr-10 11:33N 58°19' E 005°58'8 8.3
2014-Apr-10 10:34N 58°14' E 006°09'9 9.0
2014-Apr-10 09:34N 58°07' E 006°22'145 9.4
2014-Apr-09 18:08N 59°04' E 010°38'6 9.6
2014-Apr-09 17:29N 59°08' E 010°46'17 3.4
2014-Apr-09 12:25N 59°25' E 010°39'5 1.6
2014-Apr-09 09:18N 59°26' E 010°29'1 0.0
2014-Apr-08 13:25N 59°26' E 010°30'2 0.2
2014-Apr-08 01:09N 59°28' E 010°30'810.8
2014-Apr-08 00:24N 59°20' E 010°33'18 9.6
2014-Apr-07 22:30N 59°02' E 010°34'22210.1
2014-Apr-07 00:33N 55°54' E 006°56'10 9.8
2014-Apr-06 23:33N 55°45' E 006°46'10 9.9
2014-Apr-06 22:33N 55°37' E 006°37'1010.0
2014-Apr-06 21:33N 55°29' E 006°27'10 9.9
2014-Apr-06 20:32N 55°21' E 006°17'1010.0
2014-Apr-06 19:33N 55°12' E 006°07'1010.3
2014-Apr-06 18:33N 55°04' E 005°57'1010.2
2014-Apr-06 17:33N 54°55' E 005°48'16710.4
2014-Apr-06 01:34N 52°23' E 003°53'9 8.9
2014-Apr-06 00:34N 52°14' E 003°53'9 9.3
2014-Apr-05 23:34N 52°05' E 003°57'1111.0
2014-Apr-05 22:33N 51°57' E 004°10'9 9.6
2014-Apr-05 21:34N 51°54' E 004°25'0 0.2
2014-Apr-05 20:31N 51°55' E 004°25'0 0.0
2014-Apr-05 19:31N 51°55' E 004°25'0 0.0
2014-Apr-05 18:31N 51°55' E 004°25'0 0.0
2014-Apr-05 17:31N 51°55' E 004°25'0 0.0
2014-Apr-05 16:31N 51°55' E 004°25'0 0.0
2014-Apr-05 15:31N 51°55' E 004°25'0 0.0
2014-Apr-05 14:25N 51°55' E 004°25'0 0.0
2014-Apr-05 13:31N 51°55' E 004°25'0 0.0
2014-Apr-05 12:31N 51°55' E 004°25'0 0.0
2014-Apr-05 11:31N 51°55' E 004°25'0 0.0
2014-Apr-05 10:31N 51°55' E 004°25'0 0.0
2014-Apr-05 09:32N 51°55' E 004°25'  

Dump ship's entire track history

sailing weather and tide predictions

Wilson Maas — 8PSZ — position and weather